Time;durP1;ratioP1;P1;durP2;ratioP2;P2;SDS_P1;SDS_P2;PMS_P1;PMS_P2;Temp;Humidity;BMP_temperature;BMP_pressure;BME280_temperature;BME280_humidity;BME280_pressure;Samples;Min_cycle;Max_cycle;Signal;HPM_P1;HPM_P2
2024/01/09 00:02:08;;;;;;;21.20;9.98;;;;;;;-5.69;100.00;101811.41;5035368;28;20057;-72
2024/01/09 00:04:36;;;;;;;18.58;8.98;;;;;;;-5.83;100.00;101803.09;5023749;28;20045;-70
2024/01/09 00:07:07;;;;;;;18.45;10.07;;;;;;;-5.71;100.00;101813.03;5032443;28;20048;-72
2024/01/09 00:09:36;;;;;;;21.92;10.30;;;;;;;-5.74;100.00;101816.38;5047396;28;20056;-70
2024/01/09 00:12:05;;;;;;;19.35;9.18;;;;;;;-5.84;100.00;101801.34;5028700;28;20108;-71
2024/01/09 00:14:34;;;;;;;17.77;9.82;;;;;;;-5.78;100.00;101800.69;5020800;28;20099;-70
2024/01/09 00:17:03;;;;;;;15.20;7.15;;;;;;;-5.69;100.00;101812.28;5046569;28;20068;-70
2024/01/09 00:19:33;;;;;;;19.02;9.15;;;;;;;-5.70;100.00;101810.53;5009931;28;20504;-71
2024/01/09 00:22:02;;;;;;;20.33;9.25;;;;;;;-5.78;100.00;101804.16;5021550;28;20052;-72
2024/01/09 00:24:32;;;;;;;18.00;9.55;;;;;;;-5.71;100.00;101807.88;5040648;28;20104;-70
2024/01/09 00:27:01;;;;;;;16.70;9.55;;;;;;;-5.69;100.00;101809.72;5045583;28;20060;-73
2024/01/09 00:29:29;;;;;;;20.33;9.82;;;;;;;-5.70;100.00;101812.22;5033342;28;20061;-71
2024/01/09 00:32:02;;;;;;;20.30;9.50;;;;;;;-5.79;100.00;101807.53;5023924;28;20045;-72
2024/01/09 00:34:32;;;;;;;20.30;9.98;;;;;;;-5.75;100.00;101811.13;5025981;28;20073;-69
2024/01/09 00:37:02;;;;;;;18.77;8.75;;;;;;;-5.84;100.00;101796.19;5023381;28;20050;-70
2024/01/09 00:39:30;;;;;;;16.85;9.00;;;;;;;-5.83;100.00;101797.06;5028686;28;20102;-70
2024/01/09 00:42:01;;;;;;;18.63;9.32;;;;;;;-5.79;100.00;101810.13;5032076;28;20290;-72
2024/01/09 00:44:32;;;;;;;20.02;9.40;;;;;;;-5.78;100.00;101805.84;5022524;28;20054;-72
2024/01/09 00:47:03;;;;;;;20.60;10.15;;;;;;;-5.75;100.00;101793.09;5021677;28;20498;-72
2024/01/09 00:49:32;;;;;;;;;;;;;;;-5.71;100.00;101803.59;5017807;28;20049;-72
2024/01/09 00:52:02;;;;;;;19.42;9.25;;;;;;;-5.72;100.00;101777.72;5038772;28;19968;-72
2024/01/09 00:54:32;;;;;;;16.67;8.25;;;;;;;-5.73;100.00;101778.56;5011761;28;20059;-70
2024/01/09 00:56:59;;;;;;;16.00;8.13;;;;;;;-5.69;100.00;101783.03;5027985;28;20038;-72
2024/01/09 00:59:27;;;;;;;20.65;9.90;;;;;;;-5.79;100.00;101779.16;5033446;28;20045;-70
2024/01/09 01:01:59;;;;;;;19.80;9.07;;;;;;;-5.82;100.00;101773.00;5023756;28;20528;-71
2024/01/09 01:04:29;;;;;;;18.08;9.38;;;;;;;-5.74;100.00;101782.81;5028016;28;20049;-70
2024/01/09 01:06:57;;;;;;;20.50;9.65;;;;;;;-5.69;100.00;101790.75;5024947;28;20037;-72
2024/01/09 01:09:26;;;;;;;19.02;9.77;;;;;;;-5.72;100.00;101800.94;5030205;28;20051;-73
2024/01/09 01:11:54;;;;;;;23.83;10.10;;;;;;;-5.71;100.00;101795.84;5026089;28;20046;-70
2024/01/09 01:14:23;;;;;;;18.50;9.50;;;;;;;-5.73;100.00;101796.63;5010459;28;20053;-71
2024/01/09 01:16:52;;;;;;;22.77;9.75;;;;;;;-5.77;100.00;101787.84;5020659;28;20115;-71
2024/01/09 01:19:21;;;;;;;21.27;9.85;;;;;;;-5.68;100.00;101792.53;5030427;28;20041;-72
2024/01/09 01:21:53;;;;;;;22.83;10.25;;;;;;;-5.81;100.00;101780.81;5030193;28;20057;-71
2024/01/09 01:24:21;;;;;;;19.30;9.82;;;;;;;-5.82;100.00;101796.22;5031886;28;20033;-70
2024/01/09 01:26:49;;;;;;;21.17;9.32;;;;;;;-5.95;100.00;101781.97;5026241;28;20067;-71
2024/01/09 01:29:21;;;;;;;19.85;9.75;;;;;;;-5.89;100.00;101800.28;5026950;28;20057;-72
2024/01/09 01:31:51;;;;;;;23.98;10.57;;;;;;;-5.96;100.00;101789.63;5033794;28;20049;-70
2024/01/09 01:34:20;;;;;;;17.35;8.90;;;;;;;-5.89;100.00;101801.97;5035256;28;20076;-70
2024/01/09 01:36:49;;;;;;;19.80;9.50;;;;;;;-5.93;100.00;101800.09;5035022;28;20041;-70
2024/01/09 01:39:22;;;;;;;18.10;8.98;;;;;;;-5.94;100.00;101795.75;5042770;28;20042;-69
2024/01/09 01:41:50;;;;;;;20.55;9.88;;;;;;;-6.07;100.00;101772.03;5057527;28;20057;-71
2024/01/09 01:44:19;;;;;;;22.40;10.23;;;;;;;-6.01;100.00;101797.19;5038571;28;20060;-69
2024/01/09 01:46:47;;;;;;;17.85;9.90;;;;;;;-6.03;100.00;101791.97;5055460;28;20049;-71
2024/01/09 01:49:19;;;;;;;19.27;9.95;;;;;;;-6.03;100.00;101797.13;5041144;28;20082;-70
2024/01/09 01:51:51;;;;;;;20.85;9.52;;;;;;;-6.08;100.00;101788.31;5046737;28;20552;-69
2024/01/09 01:54:23;;;;;;;19.67;10.00;;;;;;;-5.99;100.00;101794.69;5023384;28;20051;-71
2024/01/09 01:56:52;;;;;;;20.65;9.90;;;;;;;-6.10;100.00;101776.16;5019766;28;20053;-70
2024/01/09 01:59:23;;;;;;;19.55;10.15;;;;;;;-6.02;100.00;101786.00;5033010;28;20046;-70
2024/01/09 02:01:52;;;;;;;;;;;;;;;-5.98;100.00;101793.88;5060580;28;20060;-71
2024/01/09 02:04:20;;;;;;;19.70;9.27;;;;;;;-5.98;100.00;101791.28;5044307;28;19927;-71
2024/01/09 02:06:51;;;;;;;19.98;9.13;;;;;;;-6.07;100.00;101779.75;5050911;28;20060;-70
2024/01/09 02:09:21;;;;;;;16.60;8.82;;;;;;;-6.13;100.00;101778.63;5042181;28;20108;-71
2024/01/09 02:11:52;;;;;;;20.83;9.60;;;;;;;-6.06;100.00;101786.69;5041924;28;20119;-72
2024/01/09 02:14:23;;;;;;;19.65;9.80;;;;;;;-6.07;100.00;101786.63;5037814;28;20045;-70
2024/01/09 02:16:51;;;;;;;23.73;10.55;;;;;;;-6.36;100.00;101741.56;5031037;28;20046;-71
2024/01/09 02:19:19;;;;;;;20.77;10.25;;;;;;;-6.01;100.00;101789.47;5043184;28;20076;-70
2024/01/09 02:21:51;;;;;;;17.88;8.90;;;;;;;-6.10;100.00;101774.47;5031138;28;20441;-70
2024/01/09 02:24:20;;;;;;;20.98;10.10;;;;;;;-6.07;100.00;101776.31;5057507;28;20045;-70
2024/01/09 02:27:03;;;;;;;21.92;9.77;;;;;;;-5.98;100.00;101779.25;5036530;28;20041;-71
2024/01/09 02:29:34;;;;;;;22.25;10.43;;;;;;;-6.11;100.00;101771.81;5039050;28;20045;-71
2024/01/09 02:32:06;;;;;;;21.83;9.98;;;;;;;-6.12;100.00;101783.84;5040747;28;20055;-70
2024/01/09 02:34:37;;;;;;;19.23;9.00;;;;;;;-6.15;100.00;101780.28;5043151;28;20041;-71
2024/01/09 02:37:06;;;;;;;17.83;9.65;;;;;;;-6.16;100.00;101781.97;5015877;28;20064;-71
2024/01/09 02:39:34;;;;;;;19.02;9.65;;;;;;;-6.11;100.00;101784.72;5034735;28;20041;-71
2024/01/09 02:42:05;;;;;;;19.73;9.70;;;;;;;-6.17;100.00;101785.34;5037499;28;20056;-73
2024/01/09 02:44:33;;;;;;;24.48;9.70;;;;;;;-6.21;100.00;101775.72;5037227;28;20348;-70
2024/01/09 02:47:01;;;;;;;17.73;9.05;;;;;;;-6.23;100.00;101777.34;5016044;28;20076;-71
2024/01/09 02:49:33;;;;;;;17.67;9.23;;;;;;;-6.22;100.00;101768.81;5038601;28;20061;-69
2024/01/09 02:52:04;;;;;;;18.45;8.85;;;;;;;-6.12;100.00;101781.25;5039615;28;20041;-70
2024/01/09 02:54:34;;;;;;;17.38;9.05;;;;;;;-6.11;100.00;101775.28;5032790;28;20042;-69
2024/01/09 02:57:03;;;;;;;18.10;9.00;;;;;;;-6.22;100.00;101773.06;5033359;28;22265;-70
2024/01/09 02:59:31;;;;;;;20.77;9.60;;;;;;;-6.18;100.00;101774.97;5041770;28;20045;-70
2024/01/09 03:02:01;;;;;;;19.73;9.77;;;;;;;-6.17;100.00;101771.59;5050834;28;20045;-70
2024/01/09 03:04:31;;;;;;;19.35;8.98;;;;;;;-6.20;100.00;101774.91;5032685;28;20045;-70
2024/01/09 03:06:59;;;;;;;19.52;9.55;;;;;;;-6.23;100.00;101779.94;5042912;28;20056;-71
2024/01/09 03:09:29;;;;;;;17.65;8.48;;;;;;;-6.25;100.00;101766.09;5030940;28;20544;-70
2024/01/09 03:11:59;;;;;;;20.10;9.43;;;;;;;-6.21;100.00;101772.25;5017519;28;20163;-71
2024/01/09 03:14:30;;;;;;;20.10;9.00;;;;;;;-6.24;100.00;101762.69;5032923;28;20049;-69
2024/01/09 03:16:58;;;;;;;19.33;8.90;;;;;;;-6.25;100.00;101758.34;5042576;28;20319;-71
2024/01/09 03:19:27;;;;;;;22.95;9.48;;;;;;;-6.22;100.00;101771.38;5037040;28;20055;-70
2024/01/09 03:21:57;;;;;;;18.67;8.95;;;;;;;-6.20;100.00;101769.75;5055448;28;20049;-71
2024/01/09 03:24:25;;;;;;;17.60;9.10;;;;;;;-6.29;100.00;101759.03;5051053;28;20111;-70
2024/01/09 03:26:54;;;;;;;19.45;8.38;;;;;;;-6.27;100.00;101759.97;5011741;28;20053;-69
2024/01/09 03:29:22;;;;;;;20.05;8.98;;;;;;;-6.32;100.00;101756.34;5026812;28;20068;-70
2024/01/09 03:31:51;;;;;;;14.43;8.40;;;;;;;-6.28;100.00;101753.06;5049200;28;20513;-71
2024/01/09 03:34:19;;;;;;;15.65;8.63;;;;;;;-6.21;100.00;101761.94;5046963;28;20088;-71
2024/01/09 03:36:50;;;;;;;16.90;8.98;;;;;;;-6.26;100.00;101754.00;5020879;28;21399;-70
2024/01/09 03:39:23;;;;;;;17.60;8.75;;;;;;;-6.30;100.00;101757.31;5019489;28;20041;-70
2024/01/09 03:41:53;;;;;;;18.98;8.65;;;;;;;-6.24;100.00;101757.53;5016618;28;20076;-69
2024/01/09 03:44:22;;;;;;;17.60;8.50;;;;;;;-6.30;100.00;101741.84;5033896;28;20069;-69
2024/01/09 03:46:55;;;;;;;16.33;8.85;;;;;;;-6.24;100.00;101752.38;5034729;28;20080;-70
2024/01/09 03:49:23;;;;;;;16.20;8.40;;;;;;;-6.24;100.00;101760.13;5030703;28;20049;-70
2024/01/09 03:51:52;;;;;;;17.33;8.45;;;;;;;-6.30;100.00;101761.56;5029124;28;20073;-71
2024/01/09 03:54:23;;;;;;;16.27;7.82;;;;;;;-6.37;100.00;101747.53;5029522;28;20049;-71
2024/01/09 03:56:51;;;;;;;13.70;7.07;;;;;;;-6.25;100.00;101755.78;5035355;28;20629;-70
2024/01/09 03:59:19;;;;;;;15.57;7.82;;;;;;;-6.23;100.00;101768.72;5049551;28;20041;-70
2024/01/09 04:01:47;;;;;;;20.55;9.30;;;;;;;-6.31;100.00;101767.53;5032306;28;20052;-70
2024/01/09 04:04:16;;;;;;;17.38;7.60;;;;;;;-6.34;100.00;101755.41;5011052;28;20549;-69
2024/01/09 04:06:53;;;;;;;18.13;8.20;;;;;;;-6.48;100.00;101747.09;5023603;28;20061;-71
2024/01/09 04:09:24;;;;;;;16.00;7.75;;;;;;;-6.48;100.00;101735.91;5034354;28;20490;-71
2024/01/09 04:11:55;;;;;;;20.38;8.00;;;;;;;-6.53;100.00;101739.97;5031261;28;20057;-70
2024/01/09 04:14:24;;;;;;;19.58;8.20;;;;;;;-6.49;100.00;101741.84;5048412;28;20048;-71
2024/01/09 04:16:52;;;;;;;17.02;8.18;;;;;;;-6.47;100.00;101754.00;5036905;28;20053;-71
2024/01/09 04:19:22;;;;;;;18.58;7.85;;;;;;;-6.46;100.00;101754.88;5029036;28;20051;-70
2024/01/09 04:21:50;;;;;;;17.15;6.88;;;;;;;-6.46;100.00;101736.84;5016504;28;20057;-70
2024/01/09 04:24:20;;;;;;;15.38;7.82;;;;;;;-6.43;100.00;101750.72;5026662;28;20045;-70
2024/01/09 04:26:49;;;;;;;17.35;7.43;;;;;;;-6.40;100.00;101749.97;5020700;28;20045;-70
2024/01/09 04:29:18;;;;;;;10.57;5.85;;;;;;;-6.38;100.00;101749.22;5013349;28;20337;-71
2024/01/09 04:31:52;;;;;;;16.33;7.30;;;;;;;-6.41;100.00;101745.63;5030072;28;20089;-71
2024/01/09 04:34:21;;;;;;;11.48;6.22;;;;;;;-6.36;100.00;101751.88;5030538;28;20099;-70
2024/01/09 04:36:50;;;;;;;15.27;7.28;;;;;;;-6.36;100.00;101754.44;5000614;28;20053;-70
2024/01/09 04:39:18;;;;;;;16.25;7.85;;;;;;;-6.43;100.00;101755.00;5031565;28;20478;-70
2024/01/09 04:41:50;;;;;;;14.98;7.10;;;;;;;-6.51;100.00;101754.66;5031232;28;20060;-71
2024/01/09 04:44:18;;;;;;;18.75;8.25;;;;;;;-6.48;100.00;101772.84;5023968;28;20123;-71
2024/01/09 04:46:47;;;;;;;12.32;6.82;;;;;;;-6.49;100.00;101757.31;5027139;28;20136;-70
2024/01/09 04:49:16;;;;;;;19.30;7.68;;;;;;;-6.43;100.00;101752.41;5026129;28;20526;-70
2024/01/09 04:51:45;;;;;;;15.43;7.43;;;;;;;-6.47;100.00;101754.00;5048875;28;20056;-72
2024/01/09 04:54:14;;;;;;;11.52;5.80;;;;;;;-6.45;100.00;101746.31;5027235;28;20410;-71
2024/01/09 04:56:43;;;;;;;13.73;6.68;;;;;;;-6.38;100.00;101745.75;5004567;28;20083;-70
2024/01/09 04:59:15;;;;;;;14.60;6.93;;;;;;;-6.34;100.00;101750.25;5027481;28;20069;-72
2024/01/09 05:01:51;;;;;;;15.85;7.28;;;;;;;-6.39;100.00;101754.31;5031010;28;20045;-70
2024/01/09 05:04:19;;;;;;;12.95;6.93;;;;;;;-6.38;100.00;101750.91;5026898;28;20056;-70
2024/01/09 05:06:49;;;;;;;13.25;7.03;;;;;;;-6.42;100.00;101741.28;5022536;28;20884;-70
2024/01/09 05:09:18;;;;;;;11.05;5.15;;;;;;;-6.46;100.00;101730.00;5029464;28;20132;-69
2024/01/09 05:11:50;;;;;;;14.23;6.28;;;;;;;-7.05;100.00;101644.09;5028573;28;20049;-70
2024/01/09 05:14:33;;;;;;;14.02;6.28;;;;;;;-6.64;100.00;101692.25;5029543;28;20672;-70
2024/01/09 05:17:02;;;;;;;13.43;7.00;;;;;;;-6.36;99.49;101723.53;5024008;28;20063;-69
2024/01/09 05:19:30;;;;;;;15.27;7.00;;;;;;;-6.37;99.79;101727.78;5006510;28;20044;-70
2024/01/09 05:21:59;;;;;;;14.23;7.00;;;;;;;-6.38;100.00;101732.88;5031971;28;20049;-70
2024/01/09 05:24:29;;;;;;;15.07;6.80;;;;;;;-6.31;98.21;101732.34;5030714;28;20041;-70
2024/01/09 05:26:57;;;;;;;14.15;6.38;;;;;;;-6.35;99.06;101734.72;5029620;28;20144;-71
2024/01/09 05:29:28;;;;;;;13.15;7.05;;;;;;;-6.35;98.93;101738.16;5037483;28;20207;-70
2024/01/09 05:31:59;;;;;;;14.63;7.00;;;;;;;-6.42;98.86;101730.97;5013223;28;20410;-70
2024/01/09 05:34:27;;;;;;;12.30;6.75;;;;;;;-6.45;98.79;101718.84;5027440;28;20041;-70
2024/01/09 05:36:57;;;;;;;9.30;4.95;;;;;;;-6.42;98.85;101728.41;5016074;28;20041;-71
2024/01/09 05:39:26;;;;;;;14.48;7.10;;;;;;;-6.34;97.93;101729.63;5028219;28;20588;-71
2024/01/09 05:41:55;;;;;;;12.07;6.53;;;;;;;-6.33;96.39;101723.66;5040525;28;20529;-70
2024/01/09 05:44:24;;;;;;;11.45;6.43;;;;;;;-6.33;97.18;101727.94;5014348;28;20136;-70
2024/01/09 05:46:55;;;;;;;12.98;6.38;;;;;;;-6.31;96.85;101727.19;5041117;28;20076;-69
2024/01/09 05:49:24;;;;;;;12.57;6.28;;;;;;;-6.38;96.88;101713.16;5024591;28;20061;-70
2024/01/09 05:51:53;;;;;;;14.55;7.03;;;;;;;-6.43;97.82;101736.94;5044331;28;20053;-69
2024/01/09 05:54:21;;;;;;;14.95;6.57;;;;;;;-6.45;98.17;101717.97;5042707;28;20045;-71
2024/01/09 05:56:53;;;;;;;11.82;6.20;;;;;;;-6.43;98.93;101731.78;5041049;28;20077;-69
2024/01/09 05:59:21;;;;;;;13.00;6.32;;;;;;;-6.37;97.02;101726.91;5039977;28;20064;-72
2024/01/09 06:01:49;;;;;;;12.70;6.35;;;;;;;-6.39;95.99;101721.69;5021812;28;20682;-70
2024/01/09 06:04:18;;;;;;;13.10;5.93;;;;;;;-6.32;97.18;101732.28;5010752;28;20124;-70
2024/01/09 06:06:49;;;;;;;13.02;7.05;;;;;;;-6.29;96.49;101735.84;5022817;28;20068;-71
2024/01/09 06:09:17;;;;;;;12.32;5.93;;;;;;;-6.33;96.22;101739.13;5027074;28;20101;-70
2024/01/09 06:11:45;;;;;;;13.75;6.90;;;;;;;-6.30;96.70;101744.41;5031528;28;20094;-70
2024/01/09 06:14:16;;;;;;;14.10;6.35;;;;;;;-6.32;96.34;101734.84;5026371;28;20533;-70
2024/01/09 06:16:44;;;;;;;;;;;;;;;-6.33;96.43;101745.97;5022691;28;20041;-70
2024/01/09 06:19:12;;;;;;;10.50;5.70;;;;;;;-6.37;97.01;101743.25;5022863;28;20013;-70
2024/01/09 06:21:41;;;;;;;14.68;6.28;;;;;;;-6.34;95.52;101739.94;5044222;28;20049;-70
2024/01/09 06:24:13;;;;;;;12.93;6.43;;;;;;;-6.37;95.39;101735.53;5035422;28;20101;-70
2024/01/09 06:26:41;;;;;;;16.33;6.75;;;;;;;-6.34;95.63;101739.94;5029310;28;20038;-69
2024/01/09 06:29:09;;;;;;;15.90;6.95;;;;;;;-6.61;95.73;101697.53;5005431;28;20088;-69
2024/01/09 06:31:40;;;;;;;14.85;7.13;;;;;;;-6.37;95.86;101734.66;5027742;28;20057;-72
2024/01/09 06:34:08;;;;;;;;;;;;;;;-6.35;96.08;101748.47;5042149;28;20065;-70
2024/01/09 06:36:37;;;;;;;14.68;6.53;;;;;;;-6.44;96.39;101733.50;5025559;28;19978;-71
2024/01/09 06:39:05;;;;;;;12.32;6.03;;;;;;;-6.37;95.97;101748.41;5015083;28;20048;-72
2024/01/09 06:41:35;;;;;;;11.90;5.72;;;;;;;-6.51;95.86;101717.72;5033390;28;20132;-72
2024/01/09 06:44:07;;;;;;;11.35;5.72;;;;;;;-6.34;95.91;101747.66;5013518;28;20521;-70
2024/01/09 06:46:36;;;;;;;12.65;6.35;;;;;;;-6.37;96.84;101751.00;5022407;28;20115;-73
2024/01/09 06:49:05;;;;;;;10.93;5.90;;;;;;;-6.44;96.14;101722.31;5027590;28;20053;-71
2024/01/09 06:51:34;;;;;;;12.02;6.18;;;;;;;-6.60;95.92;101704.41;5039902;28;20053;-72
2024/01/09 06:54:03;;;;;;;14.18;6.45;;;;;;;-6.31;96.55;101754.66;5042334;28;20386;-71
2024/01/09 06:56:31;;;;;;;11.60;6.18;;;;;;;-6.33;96.08;101759.75;5032425;28;20065;-69
2024/01/09 06:59:00;;;;;;;12.85;6.63;;;;;;;-6.32;95.47;101760.63;5030866;28;20065;-71
2024/01/09 07:01:30;;;;;;;11.13;5.00;;;;;;;-6.38;95.55;101763.81;5024947;28;20053;-72
2024/01/09 07:03:58;;;;;;;13.80;6.40;;;;;;;-6.33;95.49;101764.00;5033413;28;20263;-70
2024/01/09 07:06:29;;;;;;;11.23;5.80;;;;;;;-6.31;94.91;101752.97;5046137;28;20049;-72
2024/01/09 07:08:58;;;;;;;12.20;6.35;;;;;;;-6.28;95.82;101768.53;5020748;28;20041;-70
2024/01/09 07:11:26;;;;;;;13.95;6.60;;;;;;;-6.33;95.32;101767.47;5025453;28;20049;-70
2024/01/09 07:13:56;;;;;;;12.02;6.47;;;;;;;-6.37;96.00;101766.47;5049040;28;20831;-73
2024/01/09 07:16:25;;;;;;;12.55;6.47;;;;;;;-6.37;97.03;101766.47;5013858;28;20042;-72
2024/01/09 07:18:54;;;;;;;13.18;6.53;;;;;;;-6.43;97.18;101761.03;5032250;28;20053;-71
2024/01/09 07:21:23;;;;;;;12.50;6.00;;;;;;;-6.33;97.50;101764.00;5056828;28;20053;-71
2024/01/09 07:23:53;;;;;;;11.48;5.63;;;;;;;-6.33;96.52;101766.59;5040207;28;20052;-71
2024/01/09 07:26:23;;;;;;;10.07;6.00;;;;;;;-6.33;97.12;101774.31;5054142;28;20125;-71
2024/01/09 07:28:53;;;;;;;15.63;7.15;;;;;;;-6.37;97.16;101786.19;5032241;28;20050;-70
2024/01/09 07:31:25;;;;;;;12.90;6.13;;;;;;;-6.37;95.68;101773.31;5042408;28;20097;-70
2024/01/09 07:33:53;;;;;;;13.70;7.07;;;;;;;-6.34;96.46;101777.72;5036835;28;20053;-72
2024/01/09 07:36:21;;;;;;;12.52;6.32;;;;;;;-6.26;94.97;101779.78;5037083;28;20046;-69
2024/01/09 07:38:50;;;;;;;13.13;6.35;;;;;;;-6.23;95.09;101774.78;5049175;28;20049;-70
2024/01/09 07:41:19;;;;;;;12.10;6.00;;;;;;;-6.24;93.92;101783.31;5041223;28;20228;-70
2024/01/09 07:43:47;;;;;;;14.82;6.75;;;;;;;-6.24;95.07;101787.59;5016908;28;20107;-72
2024/01/09 07:46:17;;;;;;;13.98;6.45;;;;;;;-6.29;96.04;101782.22;5038468;28;20049;-70
2024/01/09 07:48:46;;;;;;;12.18;6.25;;;;;;;-6.22;94.77;101781.69;5026947;28;20037;-71
2024/01/09 07:51:14;;;;;;;12.65;6.72;;;;;;;-6.20;95.05;101786.91;5027416;28;20041;-72
2024/01/09 07:53:42;;;;;;;14.00;6.70;;;;;;;-6.22;94.92;101775.66;5050675;28;20057;-73
2024/01/09 07:56:15;;;;;;;11.93;6.03;;;;;;;-6.24;94.87;101766.97;5020456;28;20064;-70
2024/01/09 07:58:44;;;;;;;12.82;6.10;;;;;;;-6.16;94.08;101783.66;5034717;28;20654;-71
2024/01/09 08:01:12;;;;;;;15.48;6.30;;;;;;;-6.13;93.53;101781.19;5029812;28;20069;-70
2024/01/09 08:03:41;;;;;;;12.32;6.18;;;;;;;-6.17;94.50;101776.75;5027795;28;20051;-69
2024/01/09 08:06:16;;;;;;;13.63;5.78;;;;;;;-6.05;94.70;101785.88;5032158;28;20038;-70
2024/01/09 08:08:44;;;;;;;12.77;5.95;;;;;;;-6.06;93.59;101790.97;5031069;28;20289;-71
2024/01/09 08:11:18;;;;;;;10.95;5.78;;;;;;;-5.96;92.85;101793.09;5027990;28;20072;-71
2024/01/09 08:13:47;;;;;;;12.98;6.13;;;;;;;-5.84;91.14;101787.56;5034234;28;20230;-69
2024/01/09 08:16:18;;;;;;;12.40;6.00;;;;;;;-5.86;89.63;101779.75;5029632;28;20053;-72
2024/01/09 08:18:47;;;;;;;17.07;6.20;;;;;;;-5.73;97.36;101787.16;5025538;28;20044;-70
2024/01/09 08:21:17;;;;;;;13.02;6.38;;;;;;;-5.70;90.25;101776.09;5028213;28;20426;-71
2024/01/09 08:23:46;;;;;;;12.30;6.68;;;;;;;-5.60;87.13;101785.97;5044603;28;20525;-69
2024/01/09 08:26:14;;;;;;;12.85;6.47;;;;;;;-5.58;88.33;101779.16;5032462;28;20041;-70
2024/01/09 08:28:43;;;;;;;13.50;6.07;;;;;;;-5.52;88.03;101781.13;5021852;28;20625;-70
2024/01/09 08:31:11;;;;;;;11.95;5.95;;;;;;;-5.48;86.53;101786.44;5042304;28;20045;-70
2024/01/09 08:33:40;;;;;;;16.07;6.93;;;;;;;-5.41;85.23;101792.75;5016671;28;20095;-71
2024/01/09 08:36:11;;;;;;;13.77;6.20;;;;;;;-5.37;84.23;101789.47;5042371;28;20900;-70
2024/01/09 08:38:41;;;;;;;13.65;7.20;;;;;;;-5.34;83.97;101789.56;5040208;28;20183;-70
2024/01/09 08:41:13;;;;;;;11.90;6.10;;;;;;;-5.23;81.53;101790.00;5031640;28;20055;-69
2024/01/09 08:43:41;;;;;;;13.75;6.05;;;;;;;-5.19;80.49;101784.16;5041214;28;20045;-70
2024/01/09 08:46:09;;;;;;;12.20;6.38;;;;;;;-5.12;81.03;101791.28;5029429;28;20045;-71
2024/01/09 08:48:41;;;;;;;13.80;6.25;;;;;;;-5.03;80.29;101786.47;5041619;28;20055;-69
2024/01/09 08:51:11;;;;;;;12.32;6.03;;;;;;;-4.98;79.01;101788.41;5013495;28;20046;-70
2024/01/09 08:53:55;;;;;;;16.77;6.13;;;;;;;-4.93;77.94;101786.03;5027776;28;20116;-70
2024/01/09 08:56:24;;;;;;;10.85;5.75;;;;;;;-4.87;77.64;101781.06;5048833;28;20037;-70
2024/01/09 08:58:52;;;;;;;14.25;6.43;;;;;;;-4.77;75.62;101788.34;5018938;28;20109;-70
2024/01/09 09:01:21;;;;;;;12.35;6.53;;;;;;;-4.65;74.03;101793.97;5033957;28;20044;-70
2024/01/09 09:03:50;;;;;;;11.13;6.18;;;;;;;-4.67;73.33;101797.31;5027125;28;20084;-70
2024/01/09 09:06:20;;;;;;;14.65;7.15;;;;;;;-4.62;73.79;101788.91;5032271;28;20045;-70
2024/01/09 09:08:51;;;;;;;11.70;6.38;;;;;;;-4.51;72.66;101797.06;5012497;28;20045;-70
2024/01/09 09:11:23;;;;;;;13.25;6.45;;;;;;;-4.47;70.76;101792.88;5032417;28;20044;-69
2024/01/09 09:13:51;;;;;;;15.07;6.28;;;;;;;-4.56;69.76;101780.47;5044257;28;20536;-69
2024/01/09 09:16:22;;;;;;;11.93;6.05;;;;;;;-4.49;69.86;101794.53;5034402;28;20095;-69
2024/01/09 09:18:51;;;;;;;11.73;6.53;;;;;;;-4.46;69.63;101786.88;5028044;28;20076;-68
2024/01/09 09:21:19;;;;;;;12.70;6.63;;;;;;;-4.39;69.65;101788.84;5029803;28;20348;-71
2024/01/09 09:23:49;;;;;;;12.38;6.47;;;;;;;-4.34;68.04;101789.91;5047102;28;20061;-70
2024/01/09 09:26:17;;;;;;;12.20;6.05;;;;;;;-4.34;67.95;101789.91;5005527;28;20120;-71
2024/01/09 09:28:50;;;;;;;13.18;6.05;;;;;;;-4.37;66.85;101782.91;5028737;28;20053;-68
2024/01/09 09:31:35;;;;;;;12.38;6.68;;;;;;;-4.25;67.04;101790.25;5041469;28;20049;-70
2024/01/09 09:34:03;;;;;;;12.90;6.35;;;;;;;-4.21;67.00;101789.50;5030313;28;20111;-70
2024/01/09 09:36:31;;;;;;;12.55;5.90;;;;;;;-4.13;66.48;101787.19;5022129;28;20041;-70
2024/01/09 09:39:00;;;;;;;12.88;6.47;;;;;;;-4.01;66.26;101791.09;5021070;28;20077;-69
2024/01/09 09:41:31;;;;;;;14.32;7.35;;;;;;;-3.98;66.22;101798.06;5048688;28;20065;-69
2024/01/09 09:44:03;;;;;;;15.50;6.57;;;;;;;-3.85;65.93;101784.72;5027040;28;21018;-69
2024/01/09 09:46:35;;;;;;;11.93;6.25;;;;;;;-3.74;64.75;101790.22;5023869;28;20079;-71
2024/01/09 09:49:04;;;;;;;11.07;6.05;;;;;;;-3.69;63.52;101788.69;5026019;28;20045;-69
2024/01/09 09:51:33;;;;;;;11.90;6.25;;;;;;;-3.67;63.68;101780.16;5010770;28;20139;-69
2024/01/09 09:54:04;;;;;;;13.55;6.60;;;;;;;-3.61;63.77;101776.84;5030503;28;20089;-70
2024/01/09 09:56:33;;;;;;;12.50;6.40;;;;;;;-3.47;62.32;101775.63;5031029;28;20052;-71
2024/01/09 09:59:03;;;;;;;11.85;5.75;;;;;;;-3.38;61.92;101785.38;5021284;28;20045;-69
2024/01/09 10:01:33;;;;;;;13.70;6.32;;;;;;;-3.44;61.88;101786.06;5034263;28;20049;-72
2024/01/09 10:04:15;;;;;;;11.80;5.93;;;;;;;-3.58;61.99;101746.78;5010596;28;20041;-70
2024/01/09 10:06:47;;;;;;;13.20;6.40;;;;;;;-3.34;61.55;101769.09;5042291;28;20142;-71
2024/01/09 10:09:20;;;;;;;13.30;6.55;;;;;;;-3.28;60.93;101764.09;5011440;28;20042;-71
2024/01/09 10:11:52;;;;;;;12.95;6.75;;;;;;;-3.20;60.34;101779.06;5019388;28;21271;-71
2024/01/09 10:14:22;;;;;;;13.68;6.47;;;;;;;-3.13;60.04;101771.47;5038997;28;20064;-71
2024/01/09 10:16:53;;;;;;;;;;;;;;;-3.08;59.11;101777.66;5029076;28;20057;-71
2024/01/09 10:19:23;;;;;;;15.83;6.30;;;;;;;-3.03;59.58;101766.63;5018844;28;19947;-71
2024/01/09 10:21:56;;;;;;;9.70;5.68;;;;;;;-3.01;58.57;101758.91;5013782;28;20687;-70
2024/01/09 10:24:37;;;;;;;13.93;6.57;;;;;;;-2.92;57.59;101766.94;5029510;28;20073;-70
2024/01/09 10:27:09;;;;;;;13.00;6.00;;;;;;;-2.86;58.32;101761.94;5029888;28;20096;-71
2024/01/09 10:29:44;;;;;;;11.90;6.22;;;;;;;-2.77;57.85;101754.41;5027543;28;20037;-71
2024/01/09 10:32:14;;;;;;;13.00;6.43;;;;;;;-2.77;56.72;101780.34;5053891;28;20049;-70
2024/01/09 10:34:44;;;;;;;15.95;6.80;;;;;;;-2.92;57.12;101749.66;5019357;28;20053;-70
2024/01/09 10:37:14;;;;;;;12.52;6.85;;;;;;;-2.87;56.83;101747.22;5026022;28;20708;-70
2024/01/09 10:39:47;;;;;;;14.37;6.43;;;;;;;-2.88;57.19;101745.47;5010801;28;20406;-71
2024/01/09 10:42:16;;;;;;;12.57;6.35;;;;;;;-2.73;57.34;101740.72;5052054;28;20562;-70
2024/01/09 10:44:48;;;;;;;13.23;6.68;;;;;;;-2.67;55.62;101732.19;5032316;28;20046;-70
2024/01/09 10:47:20;;;;;;;12.00;6.30;;;;;;;-2.73;55.64;101743.31;5031955;28;20049;-70
2024/01/09 10:49:52;;;;;;;11.07;6.13;;;;;;;-2.72;54.80;101736.41;5014663;28;21220;-70
2024/01/09 10:52:22;;;;;;;12.63;6.55;;;;;;;-2.72;55.29;101742.47;5044773;28;20466;-70
2024/01/09 10:54:50;;;;;;;12.05;6.07;;;;;;;-2.66;56.00;101736.56;5042737;28;20064;-69
2024/01/09 10:57:19;;;;;;;11.55;6.32;;;;;;;-2.56;55.70;101734.28;5032455;28;20493;-70
2024/01/09 10:59:52;;;;;;;12.75;6.07;;;;;;;-2.50;55.25;101734.44;5020023;28;20113;-70
2024/01/09 11:02:26;;;;;;;12.13;6.55;;;;;;;-2.47;55.52;101737.13;5027308;28;20092;-71
2024/01/09 11:04:56;;;;;;;14.90;6.57;;;;;;;-2.48;55.14;101721.50;5032952;28;20517;-72
2024/01/09 11:07:25;;;;;;;15.43;7.10;;;;;;;-2.39;54.87;101720.91;5023604;28;20096;-71
2024/01/09 11:10:03;;;;;;;11.55;6.40;;;;;;;-2.33;54.51;101726.22;5036590;28;20500;-72
2024/01/09 11:12:42;;;;;;;12.63;6.50;;;;;;;-2.31;54.80;101728.03;5040249;28;20116;-71
2024/01/09 11:15:20;;;;;;;12.73;6.35;;;;;;;-2.22;54.04;101727.41;5033522;28;20052;-72
2024/01/09 11:17:54;;;;;;;14.20;7.35;;;;;;;-2.28;54.23;101715.16;5026308;28;20061;-70
2024/01/09 11:20:23;;;;;;;11.77;6.85;;;;;;;-2.23;54.93;101725.66;5038753;28;20504;-72
2024/01/09 11:22:51;;;;;;;12.73;6.72;;;;;;;-2.18;54.19;101716.25;5045420;28;20570;-70
2024/01/09 11:25:27;;;;;;;14.70;7.20;;;;;;;-2.16;53.97;101715.44;5030163;28;20803;-69
2024/01/09 11:27:58;;;;;;;12.40;6.57;;;;;;;-2.09;54.12;101703.53;5029397;28;20095;-70